sensor_id;sensor_type;location;lat;lon;timestamp;pressure;altitude;pressure_sealevel;temperature;humidity
63306;BME280;50735;52.060;1.248;2022-11-23T00:00:29;99068.39;;;6.63;56.52
63306;BME280;50735;52.060;1.248;2022-11-23T00:02:57;99064.42;;;6.92;56.69
63306;BME280;50735;52.060;1.248;2022-11-23T00:05:24;99065.61;;;7.08;56.61
63306;BME280;50735;52.060;1.248;2022-11-23T00:07:51;99066.56;;;6.97;56.91
63306;BME280;50735;52.060;1.248;2022-11-23T00:10:17;99065.31;;;6.78;57.35
63306;BME280;50735;52.060;1.248;2022-11-23T00:12:44;99069.60;;;6.83;57.50
63306;BME280;50735;52.060;1.248;2022-11-23T00:15:13;99073.83;;;6.44;58.06
63306;BME280;50735;52.060;1.248;2022-11-23T00:17:40;99075.02;;;6.34;58.15
63306;BME280;50735;52.060;1.248;2022-11-23T00:20:08;99074.83;;;6.04;59.21
63306;BME280;50735;52.060;1.248;2022-11-23T00:22:35;99078.08;;;6.05;58.70
63306;BME280;50735;52.060;1.248;2022-11-23T00:25:02;99074.50;;;5.86;59.23
63306;BME280;50735;52.060;1.248;2022-11-23T00:27:29;99076.29;;;5.73;60.11
63306;BME280;50735;52.060;1.248;2022-11-23T00:29:55;99076.17;;;5.79;59.70
63306;BME280;50735;52.060;1.248;2022-11-23T00:32:22;99074.28;;;5.96;59.18
63306;BME280;50735;52.060;1.248;2022-11-23T00:34:49;99072.02;;;5.59;59.41
63306;BME280;50735;52.060;1.248;2022-11-23T00:37:16;99072.24;;;5.58;59.81
63306;BME280;50735;52.060;1.248;2022-11-23T00:39:42;99070.67;;;5.68;60.14
63306;BME280;50735;52.060;1.248;2022-11-23T00:42:10;99074.59;;;5.53;59.88
63306;BME280;50735;52.060;1.248;2022-11-23T00:44:36;99074.76;;;5.66;60.10
63306;BME280;50735;52.060;1.248;2022-11-23T00:47:03;99078.82;;;5.47;60.49
63306;BME280;50735;52.060;1.248;2022-11-23T00:49:30;99078.33;;;5.55;60.12
63306;BME280;50735;52.060;1.248;2022-11-23T00:51:56;99074.93;;;5.60;59.95
63306;BME280;50735;52.060;1.248;2022-11-23T00:54:23;99075.18;;;5.50;59.32
63306;BME280;50735;52.060;1.248;2022-11-23T00:56:50;99075.32;;;5.85;59.04
63306;BME280;50735;52.060;1.248;2022-11-23T00:59:17;99073.42;;;5.82;58.48
63306;BME280;50735;52.060;1.248;2022-11-23T01:01:44;99066.75;;;6.13;58.12
63306;BME280;50735;52.060;1.248;2022-11-23T01:04:10;99067.34;;;5.95;57.83
63306;BME280;50735;52.060;1.248;2022-11-23T01:06:38;99062.13;;;6.02;57.66
63306;BME280;50735;52.060;1.248;2022-11-23T01:09:07;99062.32;;;6.25;57.40
63306;BME280;50735;52.060;1.248;2022-11-23T01:11:36;99057.16;;;6.06;57.27
63306;BME280;50735;52.060;1.248;2022-11-23T01:14:03;99054.91;;;6.14;56.91
63306;BME280;50735;52.060;1.248;2022-11-23T01:16:31;99056.78;;;6.35;57.03
63306;BME280;50735;52.060;1.248;2022-11-23T01:19:00;99053.77;;;6.28;56.74
63306;BME280;50735;52.060;1.248;2022-11-23T01:21:28;99055.45;;;6.11;56.78
63306;BME280;50735;52.060;1.248;2022-11-23T01:23:56;99055.42;;;6.34;56.81
63306;BME280;50735;52.060;1.248;2022-11-23T01:26:23;99052.45;;;6.09;56.61
63306;BME280;50735;52.060;1.248;2022-11-23T01:28:50;99052.22;;;6.05;56.63
63306;BME280;50735;52.060;1.248;2022-11-23T01:31:18;99055.01;;;6.09;56.53
63306;BME280;50735;52.060;1.248;2022-11-23T01:33:45;99053.93;;;6.11;56.43
63306;BME280;50735;52.060;1.248;2022-11-23T01:36:14;99049.36;;;6.13;56.49
63306;BME280;50735;52.060;1.248;2022-11-23T01:38:42;99049.29;;;6.17;56.21
63306;BME280;50735;52.060;1.248;2022-11-23T01:41:13;99047.60;;;6.37;56.24
63306;BME280;50735;52.060;1.248;2022-11-23T01:43:40;99043.73;;;6.06;55.78
63306;BME280;50735;52.060;1.248;2022-11-23T01:46:07;99044.07;;;6.22;56.29
63306;BME280;50735;52.060;1.248;2022-11-23T01:48:38;99048.09;;;6.14;56.03
63306;BME280;50735;52.060;1.248;2022-11-23T01:51:09;99045.77;;;6.00;56.19
63306;BME280;50735;52.060;1.248;2022-11-23T01:53:37;99043.94;;;5.71;56.36
63306;BME280;50735;52.060;1.248;2022-11-23T01:56:07;99042.50;;;5.88;56.35
63306;BME280;50735;52.060;1.248;2022-11-23T01:58:38;99046.33;;;5.74;56.61
63306;BME280;50735;52.060;1.248;2022-11-23T02:01:07;99046.93;;;5.66;56.88
63306;BME280;50735;52.060;1.248;2022-11-23T02:03:35;99046.81;;;5.64;56.86
63306;BME280;50735;52.060;1.248;2022-11-23T02:06:09;99046.70;;;5.62;56.83
63306;BME280;50735;52.060;1.248;2022-11-23T02:08:37;99049.92;;;5.56;56.85
63306;BME280;50735;52.060;1.248;2022-11-23T02:11:04;99050.08;;;5.55;56.79
63306;BME280;50735;52.060;1.248;2022-11-23T02:13:31;99043.64;;;5.61;56.99
63306;BME280;50735;52.060;1.248;2022-11-23T02:15:58;99046.35;;;5.50;57.05
63306;BME280;50735;52.060;1.248;2022-11-23T02:18:28;99044.68;;;5.54;56.88
63306;BME280;50735;52.060;1.248;2022-11-23T02:20:57;99044.32;;;5.41;57.14
63306;BME280;50735;52.060;1.248;2022-11-23T02:23:32;99041.58;;;5.21;57.53
63306;BME280;50735;52.060;1.248;2022-11-23T02:26:03;99042.62;;;5.16;57.65
63306;BME280;50735;52.060;1.248;2022-11-23T02:28:36;99046.17;;;5.16;57.67
63306;BME280;50735;52.060;1.248;2022-11-23T02:31:04;99045.56;;;5.50;57.95
63306;BME280;50735;52.060;1.248;2022-11-23T02:33:31;99040.03;;;5.20;57.67
63306;BME280;50735;52.060;1.248;2022-11-23T02:35:59;99038.43;;;5.19;57.66
63306;BME280;50735;52.060;1.248;2022-11-23T02:38:29;99032.88;;;5.08;58.06
63306;BME280;50735;52.060;1.248;2022-11-23T02:40:57;99029.94;;;5.14;57.77
63306;BME280;50735;52.060;1.248;2022-11-23T02:43:25;99026.87;;;5.51;57.99
63306;BME280;50735;52.060;1.248;2022-11-23T02:45:54;99026.18;;;5.61;57.75
63306;BME280;50735;52.060;1.248;2022-11-23T02:48:21;99023.99;;;5.33;57.63
63306;BME280;50735;52.060;1.248;2022-11-23T02:50:48;99023.61;;;5.81;57.39
63306;BME280;50735;52.060;1.248;2022-11-23T02:53:16;99023.08;;;5.66;57.26
63306;BME280;50735;52.060;1.248;2022-11-23T02:55:42;99026.02;;;5.52;57.05
63306;BME280;50735;52.060;1.248;2022-11-23T02:58:10;99019.95;;;5.53;57.02
63306;BME280;50735;52.060;1.248;2022-11-23T03:00:37;99011.66;;;5.91;57.01
63306;BME280;50735;52.060;1.248;2022-11-23T03:03:04;99010.79;;;5.54;57.00
63306;BME280;50735;52.060;1.248;2022-11-23T03:05:32;99013.38;;;5.53;56.80
63306;BME280;50735;52.060;1.248;2022-11-23T03:07:59;99015.44;;;5.51;56.99
63306;BME280;50735;52.060;1.248;2022-11-23T03:10:26;99012.62;;;5.48;56.94
63306;BME280;50735;52.060;1.248;2022-11-23T03:12:53;99008.13;;;5.49;56.97
63306;BME280;50735;52.060;1.248;2022-11-23T03:15:21;99002.94;;;5.69;56.86
63306;BME280;50735;52.060;1.248;2022-11-23T03:17:47;99003.32;;;5.68;56.99
63306;BME280;50735;52.060;1.248;2022-11-23T03:20:14;99000.43;;;5.49;56.77
63306;BME280;50735;52.060;1.248;2022-11-23T03:22:42;99000.18;;;5.48;57.39
63306;BME280;50735;52.060;1.248;2022-11-23T03:25:09;98995.69;;;5.32;57.23
63306;BME280;50735;52.060;1.248;2022-11-23T03:27:36;98987.19;;;5.56;57.17
63306;BME280;50735;52.060;1.248;2022-11-23T03:30:05;98979.32;;;5.41;57.09
63306;BME280;50735;52.060;1.248;2022-11-23T03:32:32;98979.23;;;5.60;57.06
63306;BME280;50735;52.060;1.248;2022-11-23T03:34:59;98978.34;;;5.42;56.97
63306;BME280;50735;52.060;1.248;2022-11-23T03:37:26;98977.96;;;5.83;57.07
63306;BME280;50735;52.060;1.248;2022-11-23T03:39:53;98978.23;;;5.55;57.28
63306;BME280;50735;52.060;1.248;2022-11-23T03:42:20;98975.16;;;5.25;57.54
63306;BME280;50735;52.060;1.248;2022-11-23T03:44:47;98968.65;;;5.22;57.70
63306;BME280;50735;52.060;1.248;2022-11-23T03:47:14;98972.96;;;5.18;57.51
63306;BME280;50735;52.060;1.248;2022-11-23T03:49:40;98973.10;;;5.24;57.31
63306;BME280;50735;52.060;1.248;2022-11-23T03:52:07;98972.77;;;5.41;57.44
63306;BME280;50735;52.060;1.248;2022-11-23T03:54:34;98969.52;;;5.08;57.93
63306;BME280;50735;52.060;1.248;2022-11-23T03:57:01;98963.33;;;5.17;58.34
63306;BME280;50735;52.060;1.248;2022-11-23T03:59:27;98974.26;;;5.09;58.09
63306;BME280;50735;52.060;1.248;2022-11-23T04:01:54;98966.78;;;5.32;59.34
63306;BME280;50735;52.060;1.248;2022-11-23T04:04:21;98963.32;;;5.34;58.74
63306;BME280;50735;52.060;1.248;2022-11-23T04:06:48;98962.74;;;5.41;58.52
63306;BME280;50735;52.060;1.248;2022-11-23T04:09:15;98961.22;;;5.19;58.50
63306;BME280;50735;52.060;1.248;2022-11-23T04:11:42;98957.47;;;4.98;58.67
63306;BME280;50735;52.060;1.248;2022-11-23T04:14:08;98952.07;;;4.90;59.04
63306;BME280;50735;52.060;1.248;2022-11-23T04:16:35;98956.19;;;5.20;59.47
63306;BME280;50735;52.060;1.248;2022-11-23T04:19:01;98950.69;;;4.86;59.13
63306;BME280;50735;52.060;1.248;2022-11-23T04:21:29;98948.90;;;5.22;59.12
63306;BME280;50735;52.060;1.248;2022-11-23T04:23:55;98952.74;;;5.00;59.19
63306;BME280;50735;52.060;1.248;2022-11-23T04:26:22;98950.23;;;4.90;59.16
63306;BME280;50735;52.060;1.248;2022-11-23T04:28:50;98946.96;;;5.07;59.33
63306;BME280;50735;52.060;1.248;2022-11-23T04:31:17;98944.16;;;5.31;59.54
63306;BME280;50735;52.060;1.248;2022-11-23T04:33:43;98943.53;;;5.37;59.15
63306;BME280;50735;52.060;1.248;2022-11-23T04:36:10;98942.73;;;5.19;59.26
63306;BME280;50735;52.060;1.248;2022-11-23T04:38:37;98940.25;;;5.42;59.27
63306;BME280;50735;52.060;1.248;2022-11-23T04:41:04;98937.68;;;5.26;59.48
63306;BME280;50735;52.060;1.248;2022-11-23T04:43:31;98943.00;;;5.32;60.49
63306;BME280;50735;52.060;1.248;2022-11-23T04:45:58;98946.37;;;5.12;61.31
63306;BME280;50735;52.060;1.248;2022-11-23T04:48:25;98934.74;;;5.01;60.49
63306;BME280;50735;52.060;1.248;2022-11-23T04:50:51;98914.66;;;5.31;60.49
63306;BME280;50735;52.060;1.248;2022-11-23T04:53:18;98908.46;;;5.33;60.66
63306;BME280;50735;52.060;1.248;2022-11-23T04:55:45;98906.54;;;5.02;61.13
63306;BME280;50735;52.060;1.248;2022-11-23T04:58:12;98904.44;;;5.27;60.92
63306;BME280;50735;52.060;1.248;2022-11-23T05:00:39;98905.88;;;5.17;60.66
63306;BME280;50735;52.060;1.248;2022-11-23T05:03:06;98908.66;;;5.49;60.03
63306;BME280;50735;52.060;1.248;2022-11-23T05:05:35;98909.66;;;5.61;59.75
63306;BME280;50735;52.060;1.248;2022-11-23T05:08:02;98911.60;;;5.28;59.85
63306;BME280;50735;52.060;1.248;2022-11-23T05:10:29;98908.95;;;5.47;59.79
63306;BME280;50735;52.060;1.248;2022-11-23T05:12:56;98910.51;;;5.78;59.56
63306;BME280;50735;52.060;1.248;2022-11-23T05:15:22;98914.15;;;5.83;59.43
63306;BME280;50735;52.060;1.248;2022-11-23T05:17:49;98914.67;;;5.45;59.19
63306;BME280;50735;52.060;1.248;2022-11-23T05:20:16;98913.86;;;5.47;58.97
63306;BME280;50735;52.060;1.248;2022-11-23T05:22:43;98914.13;;;5.48;59.03
63306;BME280;50735;52.060;1.248;2022-11-23T05:25:09;98910.15;;;5.65;59.11
63306;BME280;50735;52.060;1.248;2022-11-23T05:27:36;98909.29;;;5.66;59.28
63306;BME280;50735;52.060;1.248;2022-11-23T05:30:04;98909.42;;;5.46;59.12
63306;BME280;50735;52.060;1.248;2022-11-23T05:32:32;98907.62;;;5.86;59.01
63306;BME280;50735;52.060;1.248;2022-11-23T05:34:58;98909.91;;;5.48;59.03
63306;BME280;50735;52.060;1.248;2022-11-23T05:37:25;98915.24;;;5.60;59.84
63306;BME280;50735;52.060;1.248;2022-11-23T05:39:52;98911.81;;;5.46;60.10
63306;BME280;50735;52.060;1.248;2022-11-23T05:42:18;98908.63;;;5.50;59.81
63306;BME280;50735;52.060;1.248;2022-11-23T05:44:45;98912.21;;;5.56;59.67
63306;BME280;50735;52.060;1.248;2022-11-23T05:47:12;98907.00;;;5.40;59.80
63306;BME280;50735;52.060;1.248;2022-11-23T05:49:38;98906.87;;;5.49;60.63
63306;BME280;50735;52.060;1.248;2022-11-23T05:52:05;98906.77;;;5.32;60.24
63306;BME280;50735;52.060;1.248;2022-11-23T05:54:32;98903.50;;;5.57;61.00
63306;BME280;50735;52.060;1.248;2022-11-23T05:56:59;98899.35;;;5.28;61.52
63306;BME280;50735;52.060;1.248;2022-11-23T05:59:25;98895.12;;;5.33;61.26
63306;BME280;50735;52.060;1.248;2022-11-23T06:01:52;98894.90;;;5.64;61.05
63306;BME280;50735;52.060;1.248;2022-11-23T06:04:19;98897.59;;;5.34;60.60
63306;BME280;50735;52.060;1.248;2022-11-23T06:06:45;98897.87;;;5.83;61.21
63306;BME280;50735;52.060;1.248;2022-11-23T06:09:12;98895.50;;;5.30;61.79
63306;BME280;50735;52.060;1.248;2022-11-23T06:11:38;98899.35;;;5.36;61.76
63306;BME280;50735;52.060;1.248;2022-11-23T06:14:05;98899.06;;;5.76;61.53
63306;BME280;50735;52.060;1.248;2022-11-23T06:16:31;98901.20;;;5.63;61.27
63306;BME280;50735;52.060;1.248;2022-11-23T06:18:58;98899.02;;;5.67;62.30
63306;BME280;50735;52.060;1.248;2022-11-23T06:21:25;98895.87;;;5.67;62.35
63306;BME280;50735;52.060;1.248;2022-11-23T06:23:51;98895.90;;;5.61;62.33
63306;BME280;50735;52.060;1.248;2022-11-23T06:26:18;98897.95;;;5.56;62.23
63306;BME280;50735;52.060;1.248;2022-11-23T06:28:45;98899.20;;;5.65;62.12
63306;BME280;50735;52.060;1.248;2022-11-23T06:31:11;98897.43;;;5.71;62.28
63306;BME280;50735;52.060;1.248;2022-11-23T06:33:38;98888.94;;;5.86;62.80
63306;BME280;50735;52.060;1.248;2022-11-23T06:36:05;98879.40;;;5.54;62.63
63306;BME280;50735;52.060;1.248;2022-11-23T06:38:32;98871.46;;;5.66;63.53
63306;BME280;50735;52.060;1.248;2022-11-23T06:40:59;98862.63;;;5.47;63.60
63306;BME280;50735;52.060;1.248;2022-11-23T06:43:27;98856.49;;;5.70;63.74
63306;BME280;50735;52.060;1.248;2022-11-23T06:45:54;98858.34;;;5.68;64.11
63306;BME280;50735;52.060;1.248;2022-11-23T06:48:21;98852.25;;;5.78;63.66
63306;BME280;50735;52.060;1.248;2022-11-23T06:50:49;98846.17;;;6.17;64.65
63306;BME280;50735;52.060;1.248;2022-11-23T06:53:16;98843.42;;;6.12;64.28
63306;BME280;50735;52.060;1.248;2022-11-23T06:55:42;98836.09;;;5.85;64.27
63306;BME280;50735;52.060;1.248;2022-11-23T06:58:09;98824.83;;;6.04;64.68
63306;BME280;50735;52.060;1.248;2022-11-23T07:00:36;98817.01;;;6.01;66.62
63306;BME280;50735;52.060;1.248;2022-11-23T07:03:02;98817.79;;;6.02;65.21
63306;BME280;50735;52.060;1.248;2022-11-23T07:05:29;98811.15;;;5.94;65.42
63306;BME280;50735;52.060;1.248;2022-11-23T07:07:56;98808.04;;;5.93;65.58
63306;BME280;50735;52.060;1.248;2022-11-23T07:10:22;98805.33;;;6.02;64.78
63306;BME280;50735;52.060;1.248;2022-11-23T07:12:49;98807.23;;;5.68;65.61
63306;BME280;50735;52.060;1.248;2022-11-23T07:15:16;98803.60;;;5.99;65.74
63306;BME280;50735;52.060;1.248;2022-11-23T07:17:43;98809.09;;;5.99;65.46
63306;BME280;50735;52.060;1.248;2022-11-23T07:20:11;98814.04;;;6.09;65.35
63306;BME280;50735;52.060;1.248;2022-11-23T07:22:38;98812.35;;;5.87;65.47
63306;BME280;50735;52.060;1.248;2022-11-23T07:25:05;98818.94;;;5.72;66.20
63306;BME280;50735;52.060;1.248;2022-11-23T07:27:32;98810.13;;;5.85;66.70
63306;BME280;50735;52.060;1.248;2022-11-23T07:29:59;98801.71;;;5.71;66.26
63306;BME280;50735;52.060;1.248;2022-11-23T07:32:26;98799.74;;;5.43;67.38
63306;BME280;50735;52.060;1.248;2022-11-23T07:34:52;98800.40;;;5.24;68.07
63306;BME280;50735;52.060;1.248;2022-11-23T07:37:20;98795.42;;;5.24;68.40
63306;BME280;50735;52.060;1.248;2022-11-23T07:39:46;98791.35;;;5.14;67.82
63306;BME280;50735;52.060;1.248;2022-11-23T07:42:13;98794.39;;;5.39;67.33
63306;BME280;50735;52.060;1.248;2022-11-23T07:44:39;98793.29;;;5.39;67.51
63306;BME280;50735;52.060;1.248;2022-11-23T07:47:06;98794.92;;;5.26;67.59
63306;BME280;50735;52.060;1.248;2022-11-23T07:49:33;98796.09;;;5.39;67.06
63306;BME280;50735;52.060;1.248;2022-11-23T07:51:59;98789.33;;;5.28;66.86
63306;BME280;50735;52.060;1.248;2022-11-23T07:54:26;98782.77;;;4.88;67.42
63306;BME280;50735;52.060;1.248;2022-11-23T07:56:53;98777.99;;;5.40;66.39
63306;BME280;50735;52.060;1.248;2022-11-23T07:59:19;98773.08;;;5.31;65.80
63306;BME280;50735;52.060;1.248;2022-11-23T08:01:46;98770.97;;;5.20;65.72
63306;BME280;50735;52.060;1.248;2022-11-23T08:04:12;98759.43;;;5.52;66.19
63306;BME280;50735;52.060;1.248;2022-11-23T08:06:39;98762.08;;;5.68;65.00
63306;BME280;50735;52.060;1.248;2022-11-23T08:09:06;98759.60;;;5.45;65.71
63306;BME280;50735;52.060;1.248;2022-11-23T08:11:33;98761.23;;;5.76;65.15
63306;BME280;50735;52.060;1.248;2022-11-23T08:14:00;98747.34;;;5.58;65.67
63306;BME280;50735;52.060;1.248;2022-11-23T08:16:26;98737.87;;;5.68;65.66
63306;BME280;50735;52.060;1.248;2022-11-23T08:18:52;98733.50;;;5.72;66.06
63306;BME280;50735;52.060;1.248;2022-11-23T08:21:20;98724.86;;;5.80;66.10
63306;BME280;50735;52.060;1.248;2022-11-23T08:23:46;98715.13;;;5.90;65.77
63306;BME280;50735;52.060;1.248;2022-11-23T08:26:13;98721.97;;;5.68;66.48
63306;BME280;50735;52.060;1.248;2022-11-23T08:28:40;98714.48;;;5.95;66.85
63306;BME280;50735;52.060;1.248;2022-11-23T08:31:06;98708.97;;;5.90;66.94
63306;BME280;50735;52.060;1.248;2022-11-23T08:33:34;98705.02;;;5.94;66.80
63306;BME280;50735;52.060;1.248;2022-11-23T08:36:03;98703.92;;;6.31;66.63
63306;BME280;50735;52.060;1.248;2022-11-23T08:38:29;98694.25;;;6.37;66.10
63306;BME280;50735;52.060;1.248;2022-11-23T08:40:57;98693.22;;;6.05;66.64
63306;BME280;50735;52.060;1.248;2022-11-23T08:43:24;98691.89;;;6.22;66.24
63306;BME280;50735;52.060;1.248;2022-11-23T08:45:53;98686.65;;;6.02;67.19
63306;BME280;50735;52.060;1.248;2022-11-23T08:48:20;98691.93;;;6.21;67.64
63306;BME280;50735;52.060;1.248;2022-11-23T08:50:47;98685.86;;;6.36;67.04
63306;BME280;50735;52.060;1.248;2022-11-23T08:53:14;98683.86;;;6.15;67.96
63306;BME280;50735;52.060;1.248;2022-11-23T08:55:41;98689.98;;;6.18;68.44
63306;BME280;50735;52.060;1.248;2022-11-23T08:58:08;98683.13;;;6.23;68.21
63306;BME280;50735;52.060;1.248;2022-11-23T09:00:34;98686.19;;;6.44;68.10
63306;BME280;50735;52.060;1.248;2022-11-23T09:03:02;98690.61;;;6.39;69.17
63306;BME280;50735;52.060;1.248;2022-11-23T09:05:29;98686.23;;;6.14;69.87
63306;BME280;50735;52.060;1.248;2022-11-23T09:07:59;98687.85;;;6.25;70.27
63306;BME280;50735;52.060;1.248;2022-11-23T09:10:26;98692.30;;;6.29;70.54
63306;BME280;50735;52.060;1.248;2022-11-23T09:12:54;98691.09;;;5.93;72.02
63306;BME280;50735;52.060;1.248;2022-11-23T09:15:21;98674.67;;;5.72;72.66
63306;BME280;50735;52.060;1.248;2022-11-23T09:17:48;98677.58;;;6.12;71.63
63306;BME280;50735;52.060;1.248;2022-11-23T09:20:15;98676.88;;;6.42;72.32
63306;BME280;50735;52.060;1.248;2022-11-23T09:22:42;98672.05;;;5.64;73.26
63306;BME280;50735;52.060;1.248;2022-11-23T09:25:08;98666.92;;;5.48;73.79
63306;BME280;50735;52.060;1.248;2022-11-23T09:27:35;98648.98;;;5.44;74.71
63306;BME280;50735;52.060;1.248;2022-11-23T09:30:03;98652.13;;;5.17;75.13
63306;BME280;50735;52.060;1.248;2022-11-23T09:32:31;98633.29;;;5.78;74.58
63306;BME280;50735;52.060;1.248;2022-11-23T09:34:58;98646.81;;;5.39;75.43
63306;BME280;50735;52.060;1.248;2022-11-23T09:37:25;98633.37;;;5.58;74.52
63306;BME280;50735;52.060;1.248;2022-11-23T09:39:51;98628.50;;;5.93;73.86
63306;BME280;50735;52.060;1.248;2022-11-23T09:42:37;98621.72;;;6.02;74.07
63306;BME280;50735;52.060;1.248;2022-11-23T09:45:16;98627.62;;;5.73;74.41
63306;BME280;50735;52.060;1.248;2022-11-23T09:48:01;98610.53;;;5.50;74.95
63306;BME280;50735;52.060;1.248;2022-11-23T09:50:38;98609.79;;;5.55;74.57
63306;BME280;50735;52.060;1.248;2022-11-23T09:53:13;98614.82;;;5.58;74.48
63306;BME280;50735;52.060;1.248;2022-11-23T09:55:43;98613.36;;;5.52;75.59
63306;BME280;50735;52.060;1.248;2022-11-23T09:58:13;98615.54;;;5.62;74.69
63306;BME280;50735;52.060;1.248;2022-11-23T10:00:44;98614.54;;;5.23;74.86
63306;BME280;50735;52.060;1.248;2022-11-23T10:03:14;98613.39;;;5.66;74.57
63306;BME280;50735;52.060;1.248;2022-11-23T10:05:48;98602.67;;;5.40;74.87
63306;BME280;50735;52.060;1.248;2022-11-23T10:08:29;98603.65;;;5.85;73.46
63306;BME280;50735;52.060;1.248;2022-11-23T10:11:12;98586.40;;;5.47;73.66
63306;BME280;50735;52.060;1.248;2022-11-23T10:13:52;98605.03;;;5.70;74.11
63306;BME280;50735;52.060;1.248;2022-11-23T10:16:31;98604.41;;;5.05;74.74
63306;BME280;50735;52.060;1.248;2022-11-23T10:19:10;98591.31;;;5.19;75.76
63306;BME280;50735;52.060;1.248;2022-11-23T10:21:48;98592.55;;;5.18;75.12
63306;BME280;50735;52.060;1.248;2022-11-23T10:24:21;98582.68;;;5.35;75.46
63306;BME280;50735;52.060;1.248;2022-11-23T10:26:49;98571.41;;;5.31;75.25
63306;BME280;50735;52.060;1.248;2022-11-23T10:29:24;98572.53;;;5.22;75.50
63306;BME280;50735;52.060;1.248;2022-11-23T10:31:53;98563.71;;;5.34;74.40
63306;BME280;50735;52.060;1.248;2022-11-23T10:34:25;98562.62;;;5.36;75.46
63306;BME280;50735;52.060;1.248;2022-11-23T10:36:57;98568.31;;;5.30;75.55
63306;BME280;50735;52.060;1.248;2022-11-23T10:39:25;98574.49;;;5.35;75.39
63306;BME280;50735;52.060;1.248;2022-11-23T10:41:57;98560.95;;;5.26;75.87
63306;BME280;50735;52.060;1.248;2022-11-23T10:44:29;98569.41;;;4.98;76.75
63306;BME280;50735;52.060;1.248;2022-11-23T10:46:56;98558.14;;;5.22;76.59
63306;BME280;50735;52.060;1.248;2022-11-23T10:49:25;98564.44;;;5.05;76.63
63306;BME280;50735;52.060;1.248;2022-11-23T10:51:55;98552.90;;;5.35;76.73
63306;BME280;50735;52.060;1.248;2022-11-23T10:54:26;98558.80;;;5.35;76.28
63306;BME280;50735;52.060;1.248;2022-11-23T10:56:54;98566.78;;;5.15;76.45
63306;BME280;50735;52.060;1.248;2022-11-23T10:59:26;98548.20;;;5.33;76.19
63306;BME280;50735;52.060;1.248;2022-11-23T11:02:07;98548.33;;;4.99;77.05
63306;BME280;50735;52.060;1.248;2022-11-23T11:04:36;98545.38;;;5.53;77.20
63306;BME280;50735;52.060;1.248;2022-11-23T11:07:21;98548.70;;;5.29;76.80
63306;BME280;50735;52.060;1.248;2022-11-23T11:09:50;98539.82;;;5.07;77.14
63306;BME280;50735;52.060;1.248;2022-11-23T11:12:17;98537.50;;;5.38;76.83
63306;BME280;50735;52.060;1.248;2022-11-23T11:14:55;98561.92;;;5.18;77.03
63306;BME280;50735;52.060;1.248;2022-11-23T11:17:25;98551.90;;;5.36;76.63
63306;BME280;50735;52.060;1.248;2022-11-23T11:19:52;98547.94;;;5.58;75.93
63306;BME280;50735;52.060;1.248;2022-11-23T11:22:32;98562.82;;;5.62;75.61
63306;BME280;50735;52.060;1.248;2022-11-23T11:24:59;98556.32;;;5.71;74.34
63306;BME280;50735;52.060;1.248;2022-11-23T11:27:28;98553.93;;;5.95;74.44
63306;BME280;50735;52.060;1.248;2022-11-23T11:29:57;98574.55;;;5.92;74.23
63306;BME280;50735;52.060;1.248;2022-11-23T11:32:33;98568.02;;;6.22;73.69
63306;BME280;50735;52.060;1.248;2022-11-23T11:35:10;98567.69;;;6.19;72.65
63306;BME280;50735;52.060;1.248;2022-11-23T11:37:41;98559.86;;;6.34;71.90
63306;BME280;50735;52.060;1.248;2022-11-23T11:40:16;98573.20;;;6.49;71.77
63306;BME280;50735;52.060;1.248;2022-11-23T11:42:47;98566.46;;;6.46;71.94
63306;BME280;50735;52.060;1.248;2022-11-23T11:45:23;98571.21;;;6.44;71.02
63306;BME280;50735;52.060;1.248;2022-11-23T11:47:55;98569.33;;;6.87;70.64
63306;BME280;50735;52.060;1.248;2022-11-23T11:50:26;98573.96;;;6.92;70.43
63306;BME280;50735;52.060;1.248;2022-11-23T11:53:00;98574.61;;;7.00;69.63
63306;BME280;50735;52.060;1.248;2022-11-23T11:55:35;98588.28;;;7.39;68.97
63306;BME280;50735;52.060;1.248;2022-11-23T11:58:09;98598.30;;;7.07;69.09
63306;BME280;50735;52.060;1.248;2022-11-23T12:00:38;98595.49;;;6.99;68.87
63306;BME280;50735;52.060;1.248;2022-11-23T12:03:13;98601.77;;;7.07;69.00
63306;BME280;50735;52.060;1.248;2022-11-23T12:05:47;98611.14;;;7.61;68.04
63306;BME280;50735;52.060;1.248;2022-11-23T12:08:18;98605.72;;;7.29;67.74
63306;BME280;50735;52.060;1.248;2022-11-23T12:10:49;98623.75;;;6.81;68.50
63306;BME280;50735;52.060;1.248;2022-11-23T12:13:18;98637.21;;;6.86;68.88
63306;BME280;50735;52.060;1.248;2022-11-23T12:15:49;98648.36;;;7.04;68.03
63306;BME280;50735;52.060;1.248;2022-11-23T12:19:31;98654.12;;;6.97;68.46
63306;BME280;50735;52.060;1.248;2022-11-23T12:22:16;98660.38;;;7.10;68.04
63306;BME280;50735;52.060;1.248;2022-11-23T12:24:58;98678.55;;;6.82;68.09
63306;BME280;50735;52.060;1.248;2022-11-23T12:27:36;98676.25;;;6.90;68.00
63306;BME280;50735;52.060;1.248;2022-11-23T12:30:17;98685.73;;;7.00;67.52
63306;BME280;50735;52.060;1.248;2022-11-23T12:32:57;98685.26;;;7.08;67.17
63306;BME280;50735;52.060;1.248;2022-11-23T12:36:12;98687.07;;;7.55;66.75
63306;BME280;50735;52.060;1.248;2022-11-23T12:38:49;98685.01;;;7.67;65.85
63306;BME280;50735;52.060;1.248;2022-11-23T12:41:22;98692.11;;;7.69;65.98
63306;BME280;50735;52.060;1.248;2022-11-23T12:44:00;98689.63;;;7.46;65.69
63306;BME280;50735;52.060;1.248;2022-11-23T12:46:38;98697.75;;;7.42;65.29
63306;BME280;50735;52.060;1.248;2022-11-23T12:49:20;98705.40;;;7.90;65.07
63306;BME280;50735;52.060;1.248;2022-11-23T12:51:55;98710.12;;;7.82;64.56
63306;BME280;50735;52.060;1.248;2022-11-23T12:54:37;98710.90;;;8.05;63.66
63306;BME280;50735;52.060;1.248;2022-11-23T12:57:11;98716.12;;;8.27;63.58
63306;BME280;50735;52.060;1.248;2022-11-23T12:59:43;98714.76;;;8.17;63.34
63306;BME280;50735;52.060;1.248;2022-11-23T13:02:34;98715.23;;;8.89;62.18
63306;BME280;50735;52.060;1.248;2022-11-23T13:05:25;98722.69;;;9.08;60.63
63306;BME280;50735;52.060;1.248;2022-11-23T13:08:21;98724.82;;;9.21;60.17
63306;BME280;50735;52.060;1.248;2022-11-23T13:11:00;98737.03;;;9.67;59.38
63306;BME280;50735;52.060;1.248;2022-11-23T13:13:44;98742.32;;;9.99;57.82
63306;BME280;50735;52.060;1.248;2022-11-23T13:16:28;98742.96;;;10.39;57.42
63306;BME280;50735;52.060;1.248;2022-11-23T13:19:09;98751.47;;;11.32;55.39
63306;BME280;50735;52.060;1.248;2022-11-23T13:21:41;98759.04;;;10.69;52.70